Star Epsilon — V7NZ7 — position and weather

sailwx.info

Track history (hours):
 
Tides and Currents Weather Stations Pressure Air Temp Water Temp Dewpoint Dewpoint Depression Visibility Wind Speed Wind Dir Waves Ship Positions

Star Epsilon

Last reported at 2017-Jan-20 18:33 UTC. Time now 2017-Jan-23 19:04 UTC.
Position S 04°45' E 011°46'.

Length 189 m; draft 9.2 m.

Type: Ship. MMSI: 538003043.

Date/timePositionNaut miles runAvg speedWind from/ knotsBaromVisibWave heightAir tempDewpointWater temp
2017-Jan-20 18:33S 04°45' E 011°46'0 0.0
2017-Jan-20 17:08S 04°45' E 011°46'0 0.1
2017-Jan-20 13:30S 04°45' E 011°46'20 9.6
2017-Jan-20 11:26S 04°59' E 011°31'1011.7
2017-Jan-20 10:33S 05°05' E 011°23'1212.2
2017-Jan-20 09:33S 05°11' E 011°12'1312.8
2017-Jan-20 08:33S 05°21' E 011°05'1312.6
2017-Jan-20 07:33S 05°31' E 010°57'1312.5
2017-Jan-20 06:31S 05°41' E 010°49'  
Track history (hours):
 
Tides and Currents Weather Stations Pressure Air Temp Water Temp Dewpoint Dewpoint Depression Visibility Wind Speed Wind Dir Waves Ship Positions

Star Epsilon

Last reported at 2017-Jan-20 18:33 UTC. Time now 2017-Jan-23 19:04 UTC.
Position S 04°45' E 011°46'.

Length 189 m; draft 9.2 m.

Type: Ship. MMSI: 538003043.

Date/timePositionNaut miles runAvg speedWind from/ knotsBaromVisibWave heightAir tempDewpointWater temp
2017-Jan-20 18:33S 04°45' E 011°46'0 0.0
2017-Jan-20 17:08S 04°45' E 011°46'0 0.1
2017-Jan-20 13:30S 04°45' E 011°46'20 9.6
2017-Jan-20 11:26S 04°59' E 011°31'1011.7
2017-Jan-20 10:33S 05°05' E 011°23'1212.2
2017-Jan-20 09:33S 05°11' E 011°12'1312.8
2017-Jan-20 08:33S 05°21' E 011°05'1312.6
2017-Jan-20 07:33S 05°31' E 010°57'1312.5
2017-Jan-20 06:31S 05°41' E 010°49'  

Dump ship's entire track history